Brasinho — CSXI9 — position and weather

sailwx.info

Track history (hours):
 
Tides and Currents Weather Stations Pressure Air Temp Water Temp Dewpoint Dewpoint Depression Visibility Wind Speed Wind Dir Waves Ship Positions

Brasinho

Last reported at 2016-Mar-11 09:33 UTC. Time now 2016-May-03 01:08 UTC.
Position N 36°58' W 007°52'.
Warning: this ship's position is 52 days out of date.

Length 57 m; draft 1.8 m.

Type: Dredging. MMSI: 263670240.

Date/timePositionNaut miles runAvg speedWind from/ knotsBaromVisibWave heightAir tempDewpointWater temp
2016-Mar-11 09:33N 36°58' W 007°52'0 0.3
2016-Mar-11 08:31N 36°58' W 007°52'3 2.9
2016-Mar-11 07:33N 37°01' W 007°51'2 2.1
2016-Mar-11 06:32N 37°01' W 007°49'1 1.3
2016-Mar-11 05:33N 37°01' W 007°50'4 3.6
2016-Mar-11 04:33N 36°58' W 007°52'1 0.7
2016-Mar-11 03:32N 36°59' W 007°52'0 0.1
2016-Mar-11 02:32N 36°59' W 007°52'0 0.0
2016-Mar-11 01:32N 36°59' W 007°52'2 2.1
2016-Mar-11 00:32N 37°01' W 007°52'2 2.3
2016-Mar-10 23:28N 37°01' W 007°49'0 0.2
2016-Mar-10 22:30N 37°01' W 007°49'1 1.4
2016-Mar-10 21:33N 37°01' W 007°50'3 3.3
2016-Mar-10 20:31N 36°58' W 007°52'0 0.0
2016-Mar-10 19:31N 36°58' W 007°52'0 0.0
2016-Mar-10 18:31N 36°58' W 007°52'1 0.7
2016-Mar-10 17:33N 36°58' W 007°52'5 4.6
2016-Mar-10 16:33N 37°01' W 007°49'1 0.7
2016-Mar-10 15:33N 37°00' W 007°48'5 5.2
2016-Mar-10 14:33N 36°60' W 007°55'0 0.4
2016-Mar-10 13:33N 37°00' W 007°55'0 0.0
2016-Mar-10 12:30N 37°00' W 007°55'0 0.0
2016-Mar-10 11:33N 37°00' W 007°55'0 0.0
2016-Mar-10 10:33N 37°00' W 007°55'0 0.0
2016-Mar-10 09:33N 37°00' W 007°55'0 0.0
2016-Mar-10 08:33N 37°00' W 007°55'0 0.2
2016-Mar-10 07:33N 37°00' W 007°55'0 0.1
2016-Mar-10 06:33N 37°00' W 007°55'0 0.4
2016-Mar-10 05:33N 36°60' W 007°55'3 2.9
2016-Mar-10 04:31N 36°58' W 007°52'1 0.9
2016-Mar-10 03:32N 36°59' W 007°52'0 0.0
2016-Mar-10 02:31N 36°59' W 007°52'0 0.1
2016-Mar-10 01:33N 36°59' W 007°52'4 3.8
2016-Mar-10 00:33N 37°01' W 007°49'1 0.8
2016-Mar-09 23:33N 37°02' W 007°50'3 3.2
2016-Mar-09 22:32N 36°59' W 007°51'0 0.0
2016-Mar-09 21:32N 36°59' W 007°51'0 0.0
2016-Mar-09 20:32N 36°59' W 007°51'1 1.4
2016-Mar-09 19:33N 36°60' W 007°51'2 2.4
2016-Mar-09 18:33N 37°01' W 007°49'3 2.6
2016-Mar-09 17:33N 37°00' W 007°52'2 1.7
2016-Mar-09 16:32N 36°58' W 007°51'0 0.0
2016-Mar-09 15:32N 36°58' W 007°51'1 0.6
2016-Mar-09 14:33N 36°59' W 007°52'1 0.9
2016-Mar-09 13:33N 36°58' W 007°52'5 4.5
2016-Mar-09 12:34N 37°02' W 007°49'0 0.0
2016-Mar-09 11:33N 37°02' W 007°49'4 3.6
2016-Mar-09 10:31N 36°58' W 007°51'0 0.0
2016-Mar-09 09:31N 36°58' W 007°51'1 0.7
2016-Mar-09 08:30N 36°59' W 007°52'3 1.6
2016-Mar-09 06:33N 37°02' W 007°49'4 4.2
2016-Mar-09 05:31N 36°58' W 007°52'1 0.3
2016-Mar-09 03:22N 36°58' W 007°51'1 1.2
2016-Mar-09 02:33N 36°58' W 007°52'5 4.6
2016-Mar-09 01:33N 37°02' W 007°49'1 0.8
2016-Mar-09 00:32N 37°01' W 007°48'2 1.6
2016-Mar-08 23:33N 37°01' W 007°50'3 2.2
2016-Mar-08 22:20N 36°59' W 007°51'0 0.0
2016-Mar-08 21:32N 36°59' W 007°51'0 0.0
2016-Mar-08 20:32N 36°59' W 007°51'2 1.7
2016-Mar-08 19:33N 37°00' W 007°52'3 2.6
2016-Mar-08 18:33N 37°01' W 007°49'3 2.6
2016-Mar-08 17:33N 37°00' W 007°52'2 1.6
2016-Mar-08 16:32N 36°58' W 007°51'0 0.0
2016-Mar-08 15:32N 36°58' W 007°51'3 3.2
2016-Mar-08 14:33N 37°01' W 007°50'1 1.3
2016-Mar-08 13:33N 37°01' W 007°48'3 2.7
2016-Mar-08 12:33N 37°00' W 007°52'2 1.9
2016-Mar-08 11:32N 36°58' W 007°51'0 0.0
2016-Mar-08 10:32N 36°58' W 007°51'1 1.3
2016-Mar-08 09:33N 36°60' W 007°51'2 2.3
2016-Mar-08 08:32N 37°01' W 007°49'1 1.0
2016-Mar-08 07:33N 37°02' W 007°50'4 3.7
2016-Mar-08 06:33N 36°59' W 007°52'1 0.8
2016-Mar-08 05:28N 36°58' W 007°51'0 0.2
2016-Mar-08 04:18N 36°59' W 007°51'0 0.0
2016-Mar-08 03:33N 36°59' W 007°51'0 0.0
2016-Mar-08 02:33N 36°59' W 007°51'2 2.2
2016-Mar-08 01:33N 37°01' W 007°52'2 2.3
2016-Mar-08 00:32N 37°01' W 007°49'2 2.4
2016-Mar-07 23:33N 36°60' W 007°51'1 1.3
2016-Mar-07 22:32N 36°59' W 007°51'0 0.0
2016-Mar-07 21:29N 36°59' W 007°51'0 0.0
2016-Mar-07 20:32N 36°59' W 007°51'2 1.5
2016-Mar-07 19:33N 37°00' W 007°51'3 2.4
2016-Mar-07 18:31N 37°01' W 007°49'2 1.9
2016-Mar-07 17:33N 37°01' W 007°51'3 2.9
2016-Mar-07 16:31N 36°58' W 007°52'0 0.1
2016-Mar-07 15:33N 36°58' W 007°52'0 0.4
2016-Mar-07 14:31N 36°58' W 007°51'0 0.0
2016-Mar-07 13:31N 36°58' W 007°51'1 0.6
2016-Mar-07 12:32N 36°59' W 007°52'3 3.3
2016-Mar-07 11:33N 37°01' W 007°49'1 1.3
2016-Mar-07 10:33N 37°02' W 007°50'0 0.0
2016-Mar-07 09:33N 37°02' W 007°50'0 0.0
2016-Mar-07 08:33N 37°02' W 007°50'1 0.7
2016-Mar-07 07:32N 37°01' W 007°51'3 2.5
2016-Mar-07 06:31N 36°59' W 007°51'0 0.0
2016-Mar-07 05:31N 36°59' W 007°51'1 1.5
2016-Mar-07 04:33N 36°60' W 007°51'3 2.5
2016-Mar-07 03:31N 37°01' W 007°48'3 2.6
2016-Mar-07 02:33N 36°60' W 007°51'1 1.1
2016-Mar-07 01:33N 36°59' W 007°51'0 0.0
2016-Mar-07 00:33N 36°59' W 007°51'1 0.8
2016-Mar-06 23:33N 36°59' W 007°52'4 3.7
2016-Mar-06 22:32N 37°01' W 007°49'0 0.1
2016-Mar-06 21:29N 37°01' W 007°49'1 0.6
2016-Mar-06 20:33N 37°02' W 007°49'5 5.1
2016-Mar-06 19:33N 36°60' W 007°55'1 0.7
2016-Mar-06 18:33N 37°00' W 007°55'0 0.0
2016-Mar-05 18:33N 37°00' W 007°55'0 0.2
2016-Mar-05 17:33N 37°00' W 007°55'2 2.3
2016-Mar-05 16:33N 36°59' W 007°53'1 1.4
2016-Mar-05 15:33N 36°58' W 007°51'0 0.0
2016-Mar-05 14:33N 36°58' W 007°51'3 2.7
2016-Mar-05 13:33N 37°01' W 007°51'2 1.7
2016-Mar-05 12:33N 37°01' W 007°48'2 1.5
2016-Mar-05 11:33N 37°01' W 007°50'3 2.9
2016-Mar-05 10:33N 36°58' W 007°51'0 0.0
2016-Mar-05 09:33N 36°58' W 007°51'2 1.8
2016-Mar-05 08:33N 37°00' W 007°52'3 2.6
2016-Mar-05 07:32N 37°01' W 007°48'1 0.5
2016-Mar-05 06:28N 37°01' W 007°49'3 2.9
2016-Mar-05 05:33N 36°60' W 007°51'1 1.4
2016-Mar-05 04:32N 36°58' W 007°51'0 0.0
2016-Mar-05 03:33N 36°58' W 007°51'0 0.0
2016-Mar-05 02:33N 36°58' W 007°51'3 2.9
2016-Mar-05 01:33N 37°01' W 007°50'1 1.3
2016-Mar-05 00:32N 37°01' W 007°49'4 4.5
2016-Mar-04 23:33N 36°58' W 007°52'1 1.1
2016-Mar-04 22:32N 36°59' W 007°51'0 0.0
2016-Mar-04 21:32N 36°59' W 007°51'1 0.9
2016-Mar-04 20:33N 36°58' W 007°52'4 4.1
2016-Mar-04 19:32N 37°02' W 007°50'1 1.2
2016-Mar-04 18:32N 37°01' W 007°48'4 4.3
2016-Mar-04 17:33N 36°58' W 007°52'1 0.9
2016-Mar-04 16:32N 36°58' W 007°51'0 0.0
2016-Mar-04 15:32N 36°58' W 007°51'3 3.4
2016-Mar-04 14:33N 37°02' W 007°49'1 1.1
2016-Mar-04 13:31N 37°01' W 007°48'1 0.9
2016-Mar-04 12:33N 37°02' W 007°49'4 3.7
2016-Mar-04 11:32N 36°58' W 007°51'0 0.0
2016-Mar-04 10:32N 36°58' W 007°51'0 0.0
2016-Mar-04 09:32N 36°58' W 007°51'1 0.8
2016-Mar-04 08:33N 36°59' W 007°51'3 2.8
2016-Mar-04 07:32N 37°01' W 007°48'0 0.2
2016-Mar-04 06:33N 37°01' W 007°48'0 0.0
2016-Mar-04 05:33N 37°01' W 007°48'0 0.0
2016-Mar-04 04:33N 37°01' W 007°48'0 0.0
2016-Mar-04 03:33N 37°01' W 007°48'0 0.0
2016-Mar-04 02:33N 37°01' W 007°48'0 0.2
2016-Mar-04 01:33N 37°01' W 007°49'2 1.7
2016-Mar-04 00:33N 37°01' W 007°51'3 2.6
2016-Mar-03 23:32N 36°58' W 007°51'0 0.0
2016-Mar-03 22:32N 36°58' W 007°51'1 0.8
2016-Mar-03 21:33N 36°58' W 007°52'3 2.8
2016-Mar-03 20:31N 37°00' W 007°55'0 0.0
2016-Mar-03 19:31N 37°00' W 007°55'0 0.0
2016-Mar-03 18:31N 37°00' W 007°55'0 0.0
2016-Mar-03 17:31N 37°00' W 007°55'0 0.0
2016-Mar-03 16:31N 37°00' W 007°55'0 0.0
2016-Mar-03 15:31N 37°00' W 007°55'0 0.0
2016-Mar-01 17:32N 37°00' W 007°55'0 0.0
2016-Mar-01 16:31N 37°00' W 007°55'0 0.0
2016-Mar-01 15:31N 37°00' W 007°55'0 0.0
2016-Mar-01 14:31N 37°00' W 007°55'0 0.0
2016-Mar-01 13:31N 37°00' W 007°55'0 0.0
2016-Mar-01 12:31N 37°00' W 007°55'0 0.0
2016-Mar-01 11:31N 37°00' W 007°55'0 0.0
2016-Mar-01 10:31N 37°00' W 007°55'  
Track history (hours):
 
Tides and Currents Weather Stations Pressure Air Temp Water Temp Dewpoint Dewpoint Depression Visibility Wind Speed Wind Dir Waves Ship Positions

Brasinho

Last reported at 2016-Mar-11 09:33 UTC. Time now 2016-May-03 01:08 UTC.
Position N 36°58' W 007°52'.
Warning: this ship's position is 52 days out of date.

Length 57 m; draft 1.8 m.

Type: Dredging. MMSI: 263670240.

Date/timePositionNaut miles runAvg speedWind from/ knotsBaromVisibWave heightAir tempDewpointWater temp
2016-Mar-11 09:33N 36°58' W 007°52'0 0.3
2016-Mar-11 08:31N 36°58' W 007°52'3 2.9
2016-Mar-11 07:33N 37°01' W 007°51'2 2.1
2016-Mar-11 06:32N 37°01' W 007°49'1 1.3
2016-Mar-11 05:33N 37°01' W 007°50'4 3.6
2016-Mar-11 04:33N 36°58' W 007°52'1 0.7
2016-Mar-11 03:32N 36°59' W 007°52'0 0.1
2016-Mar-11 02:32N 36°59' W 007°52'0 0.0
2016-Mar-11 01:32N 36°59' W 007°52'2 2.1
2016-Mar-11 00:32N 37°01' W 007°52'2 2.3
2016-Mar-10 23:28N 37°01' W 007°49'0 0.2
2016-Mar-10 22:30N 37°01' W 007°49'1 1.4
2016-Mar-10 21:33N 37°01' W 007°50'3 3.3
2016-Mar-10 20:31N 36°58' W 007°52'0 0.0
2016-Mar-10 19:31N 36°58' W 007°52'0 0.0
2016-Mar-10 18:31N 36°58' W 007°52'1 0.7
2016-Mar-10 17:33N 36°58' W 007°52'5 4.6
2016-Mar-10 16:33N 37°01' W 007°49'1 0.7
2016-Mar-10 15:33N 37°00' W 007°48'5 5.2
2016-Mar-10 14:33N 36°60' W 007°55'0 0.4
2016-Mar-10 13:33N 37°00' W 007°55'0 0.0
2016-Mar-10 12:30N 37°00' W 007°55'0 0.0
2016-Mar-10 11:33N 37°00' W 007°55'0 0.0
2016-Mar-10 10:33N 37°00' W 007°55'0 0.0
2016-Mar-10 09:33N 37°00' W 007°55'0 0.0
2016-Mar-10 08:33N 37°00' W 007°55'0 0.2
2016-Mar-10 07:33N 37°00' W 007°55'0 0.1
2016-Mar-10 06:33N 37°00' W 007°55'0 0.4
2016-Mar-10 05:33N 36°60' W 007°55'3 2.9
2016-Mar-10 04:31N 36°58' W 007°52'1 0.9
2016-Mar-10 03:32N 36°59' W 007°52'0 0.0
2016-Mar-10 02:31N 36°59' W 007°52'0 0.1
2016-Mar-10 01:33N 36°59' W 007°52'4 3.8
2016-Mar-10 00:33N 37°01' W 007°49'1 0.8
2016-Mar-09 23:33N 37°02' W 007°50'3 3.2
2016-Mar-09 22:32N 36°59' W 007°51'0 0.0
2016-Mar-09 21:32N 36°59' W 007°51'0 0.0
2016-Mar-09 20:32N 36°59' W 007°51'1 1.4
2016-Mar-09 19:33N 36°60' W 007°51'2 2.4
2016-Mar-09 18:33N 37°01' W 007°49'3 2.6
2016-Mar-09 17:33N 37°00' W 007°52'2 1.7
2016-Mar-09 16:32N 36°58' W 007°51'0 0.0
2016-Mar-09 15:32N 36°58' W 007°51'1 0.6
2016-Mar-09 14:33N 36°59' W 007°52'1 0.9
2016-Mar-09 13:33N 36°58' W 007°52'5 4.5
2016-Mar-09 12:34N 37°02' W 007°49'0 0.0
2016-Mar-09 11:33N 37°02' W 007°49'4 3.6
2016-Mar-09 10:31N 36°58' W 007°51'0 0.0
2016-Mar-09 09:31N 36°58' W 007°51'1 0.7
2016-Mar-09 08:30N 36°59' W 007°52'3 1.6
2016-Mar-09 06:33N 37°02' W 007°49'4 4.2
2016-Mar-09 05:31N 36°58' W 007°52'1 0.3
2016-Mar-09 03:22N 36°58' W 007°51'1 1.2
2016-Mar-09 02:33N 36°58' W 007°52'5 4.6
2016-Mar-09 01:33N 37°02' W 007°49'1 0.8
2016-Mar-09 00:32N 37°01' W 007°48'2 1.6
2016-Mar-08 23:33N 37°01' W 007°50'3 2.2
2016-Mar-08 22:20N 36°59' W 007°51'0 0.0
2016-Mar-08 21:32N 36°59' W 007°51'0 0.0
2016-Mar-08 20:32N 36°59' W 007°51'2 1.7
2016-Mar-08 19:33N 37°00' W 007°52'3 2.6
2016-Mar-08 18:33N 37°01' W 007°49'3 2.6
2016-Mar-08 17:33N 37°00' W 007°52'2 1.6
2016-Mar-08 16:32N 36°58' W 007°51'0 0.0
2016-Mar-08 15:32N 36°58' W 007°51'3 3.2
2016-Mar-08 14:33N 37°01' W 007°50'1 1.3
2016-Mar-08 13:33N 37°01' W 007°48'3 2.7
2016-Mar-08 12:33N 37°00' W 007°52'2 1.9
2016-Mar-08 11:32N 36°58' W 007°51'0 0.0
2016-Mar-08 10:32N 36°58' W 007°51'1 1.3
2016-Mar-08 09:33N 36°60' W 007°51'2 2.3
2016-Mar-08 08:32N 37°01' W 007°49'1 1.0
2016-Mar-08 07:33N 37°02' W 007°50'4 3.7
2016-Mar-08 06:33N 36°59' W 007°52'1 0.8
2016-Mar-08 05:28N 36°58' W 007°51'0 0.2
2016-Mar-08 04:18N 36°59' W 007°51'0 0.0
2016-Mar-08 03:33N 36°59' W 007°51'0 0.0
2016-Mar-08 02:33N 36°59' W 007°51'2 2.2
2016-Mar-08 01:33N 37°01' W 007°52'2 2.3
2016-Mar-08 00:32N 37°01' W 007°49'2 2.4
2016-Mar-07 23:33N 36°60' W 007°51'1 1.3
2016-Mar-07 22:32N 36°59' W 007°51'0 0.0
2016-Mar-07 21:29N 36°59' W 007°51'0 0.0
2016-Mar-07 20:32N 36°59' W 007°51'2 1.5
2016-Mar-07 19:33N 37°00' W 007°51'3 2.4
2016-Mar-07 18:31N 37°01' W 007°49'2 1.9
2016-Mar-07 17:33N 37°01' W 007°51'3 2.9
2016-Mar-07 16:31N 36°58' W 007°52'0 0.1
2016-Mar-07 15:33N 36°58' W 007°52'0 0.4
2016-Mar-07 14:31N 36°58' W 007°51'0 0.0
2016-Mar-07 13:31N 36°58' W 007°51'1 0.6
2016-Mar-07 12:32N 36°59' W 007°52'3 3.3
2016-Mar-07 11:33N 37°01' W 007°49'1 1.3
2016-Mar-07 10:33N 37°02' W 007°50'0 0.0
2016-Mar-07 09:33N 37°02' W 007°50'0 0.0
2016-Mar-07 08:33N 37°02' W 007°50'1 0.7
2016-Mar-07 07:32N 37°01' W 007°51'3 2.5
2016-Mar-07 06:31N 36°59' W 007°51'0 0.0
2016-Mar-07 05:31N 36°59' W 007°51'1 1.5
2016-Mar-07 04:33N 36°60' W 007°51'3 2.5
2016-Mar-07 03:31N 37°01' W 007°48'3 2.6
2016-Mar-07 02:33N 36°60' W 007°51'1 1.1
2016-Mar-07 01:33N 36°59' W 007°51'0 0.0
2016-Mar-07 00:33N 36°59' W 007°51'1 0.8
2016-Mar-06 23:33N 36°59' W 007°52'4 3.7
2016-Mar-06 22:32N 37°01' W 007°49'0 0.1
2016-Mar-06 21:29N 37°01' W 007°49'1 0.6
2016-Mar-06 20:33N 37°02' W 007°49'5 5.1
2016-Mar-06 19:33N 36°60' W 007°55'1 0.7
2016-Mar-06 18:33N 37°00' W 007°55'0 0.0
2016-Mar-05 18:33N 37°00' W 007°55'0 0.2
2016-Mar-05 17:33N 37°00' W 007°55'2 2.3
2016-Mar-05 16:33N 36°59' W 007°53'1 1.4
2016-Mar-05 15:33N 36°58' W 007°51'0 0.0
2016-Mar-05 14:33N 36°58' W 007°51'3 2.7
2016-Mar-05 13:33N 37°01' W 007°51'2 1.7
2016-Mar-05 12:33N 37°01' W 007°48'2 1.5
2016-Mar-05 11:33N 37°01' W 007°50'3 2.9
2016-Mar-05 10:33N 36°58' W 007°51'0 0.0
2016-Mar-05 09:33N 36°58' W 007°51'2 1.8
2016-Mar-05 08:33N 37°00' W 007°52'3 2.6
2016-Mar-05 07:32N 37°01' W 007°48'1 0.5
2016-Mar-05 06:28N 37°01' W 007°49'3 2.9
2016-Mar-05 05:33N 36°60' W 007°51'1 1.4
2016-Mar-05 04:32N 36°58' W 007°51'0 0.0
2016-Mar-05 03:33N 36°58' W 007°51'0 0.0
2016-Mar-05 02:33N 36°58' W 007°51'3 2.9
2016-Mar-05 01:33N 37°01' W 007°50'1 1.3
2016-Mar-05 00:32N 37°01' W 007°49'4 4.5
2016-Mar-04 23:33N 36°58' W 007°52'1 1.1
2016-Mar-04 22:32N 36°59' W 007°51'0 0.0
2016-Mar-04 21:32N 36°59' W 007°51'1 0.9
2016-Mar-04 20:33N 36°58' W 007°52'4 4.1
2016-Mar-04 19:32N 37°02' W 007°50'1 1.2
2016-Mar-04 18:32N 37°01' W 007°48'4 4.3
2016-Mar-04 17:33N 36°58' W 007°52'1 0.9
2016-Mar-04 16:32N 36°58' W 007°51'0 0.0
2016-Mar-04 15:32N 36°58' W 007°51'3 3.4
2016-Mar-04 14:33N 37°02' W 007°49'1 1.1
2016-Mar-04 13:31N 37°01' W 007°48'1 0.9
2016-Mar-04 12:33N 37°02' W 007°49'4 3.7
2016-Mar-04 11:32N 36°58' W 007°51'0 0.0
2016-Mar-04 10:32N 36°58' W 007°51'0 0.0
2016-Mar-04 09:32N 36°58' W 007°51'1 0.8
2016-Mar-04 08:33N 36°59' W 007°51'3 2.8
2016-Mar-04 07:32N 37°01' W 007°48'0 0.2
2016-Mar-04 06:33N 37°01' W 007°48'0 0.0
2016-Mar-04 05:33N 37°01' W 007°48'0 0.0
2016-Mar-04 04:33N 37°01' W 007°48'0 0.0
2016-Mar-04 03:33N 37°01' W 007°48'0 0.0
2016-Mar-04 02:33N 37°01' W 007°48'0 0.2
2016-Mar-04 01:33N 37°01' W 007°49'2 1.7
2016-Mar-04 00:33N 37°01' W 007°51'3 2.6
2016-Mar-03 23:32N 36°58' W 007°51'0 0.0
2016-Mar-03 22:32N 36°58' W 007°51'1 0.8
2016-Mar-03 21:33N 36°58' W 007°52'3 2.8
2016-Mar-03 20:31N 37°00' W 007°55'0 0.0
2016-Mar-03 19:31N 37°00' W 007°55'0 0.0
2016-Mar-03 18:31N 37°00' W 007°55'0 0.0
2016-Mar-03 17:31N 37°00' W 007°55'0 0.0
2016-Mar-03 16:31N 37°00' W 007°55'0 0.0
2016-Mar-03 15:31N 37°00' W 007°55'0 0.0
2016-Mar-01 17:32N 37°00' W 007°55'0 0.0
2016-Mar-01 16:31N 37°00' W 007°55'0 0.0
2016-Mar-01 15:31N 37°00' W 007°55'0 0.0
2016-Mar-01 14:31N 37°00' W 007°55'0 0.0
2016-Mar-01 13:31N 37°00' W 007°55'0 0.0
2016-Mar-01 12:31N 37°00' W 007°55'0 0.0
2016-Mar-01 11:31N 37°00' W 007°55'0 0.0
2016-Mar-01 10:31N 37°00' W 007°55'  

Dump ship's entire track history